Commodore Clipper — C6QQ3 — position and weather

sailwx.info

Track history (hours):
 
Tides and Currents Weather Stations Pressure Air Temp Water Temp Dewpoint Dewpoint Depression Visibility Wind Speed Wind Dir Waves Ship Positions

Commodore Clipper

Operator: Condor Marine Services

Last reported at 2019-Jul-19 18:25 UTC. Time now 2019-Jul-19 18:33 UTC.
Position N 49°10' W 002°14'.

Length 130 m; draft 5.2 m.

Type: Ship. MMSI: 308094000.

Date/timePositionNaut miles runAvg speedWind from/ knotsBaromVisibWave heightAir tempDewpointWater temp
2019-Jul-19 18:25N 49°10' W 002°14'716.4
2019-Jul-19 18:01N 49°14' W 002°22'817.0
2019-Jul-19 17:31N 49°22' W 002°27'612.3
2019-Jul-19 17:00N 49°27' W 002°32'0 0.0
2019-Jul-19 16:30N 49°27' W 002°32'0 0.0
2019-Jul-19 16:00N 49°27' W 002°32'0 0.0
2019-Jul-19 15:30N 49°27' W 002°32'4 8.6
2019-Jul-19 15:01N 49°27' W 002°25'918.5
2019-Jul-19 14:31N 49°32' W 002°14'918.8
2019-Jul-19 14:01N 49°40' W 002°06'1019.7
2019-Jul-19 13:30N 49°49' W 001°59'917.0
2019-Jul-19 13:00N 49°57' W 001°53'816.5
2019-Jul-19 12:30N 50°03' W 001°45'815.8
2019-Jul-19 12:00N 50°09' W 001°37'815.4
2019-Jul-19 11:30N 50°15' W 001°30'1114.9
2019-Jul-19 10:46N 50°24' W 001°20'514.4
2019-Jul-19 10:27N 50°28' W 001°15'614.2
2019-Jul-19 10:00N 50°33' W 001°11'713.8
2019-Jul-19 09:30N 50°39' W 001°05'713.3
2019-Jul-19 09:01N 50°46' W 001°05'3 6.1
2019-Jul-19 08:31N 50°49' W 001°06'0 0.0
2019-Jul-19 08:01N 50°49' W 001°06'0 0.0
2019-Jul-19 07:31N 50°49' W 001°06'0 0.0
2019-Jul-19 07:01N 50°49' W 001°06'0 0.0
2019-Jul-19 06:31N 50°49' W 001°06'0 0.0
2019-Jul-19 06:01N 50°49' W 001°06'0 0.0
2019-Jul-19 05:31N 50°49' W 001°06'1 2.0
2019-Jul-19 05:01N 50°48' W 001°07'611.1
2019-Jul-19 04:31N 50°44' W 001°02'713.5
2019-Jul-19 04:01N 50°37' W 001°04'714.4
2019-Jul-19 03:31N 50°31' W 001°11'714.5
2019-Jul-19 03:00N 50°25' W 001°18'714.5
2019-Jul-19 02:30N 50°20' W 001°25'715.0
2019-Jul-19 02:00N 50°13' W 001°31'815.6
2019-Jul-19 01:30N 50°06' W 001°37'815.8
2019-Jul-19 01:00N 49°60' W 001°43'816.2
2019-Jul-19 00:31N 49°53' W 001°49'816.6
2019-Jul-19 00:01N 49°47' W 001°58'816.0
2019-Jul-18 23:31N 49°40' W 002°05'917.1
2019-Jul-18 23:00N 49°32' W 002°11'918.3
2019-Jul-18 22:31N 49°24' W 002°16'918.1
2019-Jul-18 22:01N 49°15' W 002°20'816.0
2019-Jul-18 21:29N 49°10' W 002°11'3 1.0
2019-Jul-18 18:54N 49°11' W 002°07'4 9.3
2019-Jul-18 18:30N 49°10' W 002°13'815.8
2019-Jul-18 18:00N 49°15' W 002°22'917.3
2019-Jul-18 17:31N 49°23' W 002°27'611.0
2019-Jul-18 17:00N 49°27' W 002°32'0 0.0
2019-Jul-18 16:30N 49°27' W 002°32'0 0.0
2019-Jul-18 16:00N 49°27' W 002°32'1 1.7
2019-Jul-18 15:31N 49°27' W 002°30'713.4
2019-Jul-18 15:01N 49°29' W 002°20'917.9
2019-Jul-18 14:29N 49°34' W 002°09'1020.2
2019-Jul-18 14:00N 49°43' W 002°03'1019.8
2019-Jul-18 13:31N 49°51' W 001°54'918.2
2019-Jul-18 13:01N 49°59' W 001°46'917.4
2019-Jul-18 12:31N 50°06' W 001°39'816.8
2019-Jul-18 12:00N 50°13' W 001°31'816.1
2019-Jul-18 11:31N 50°19' W 001°23'915.6
2019-Jul-18 10:57N 50°27' W 001°18'714.9
2019-Jul-18 10:30N 50°32' W 001°12'714.7
2019-Jul-18 10:00N 50°39' W 001°05'713.7
2019-Jul-18 09:31N 50°45' W 001°05'3 6.6
2019-Jul-18 09:00N 50°49' W 001°06'0 0.0
2019-Jul-18 08:30N 50°49' W 001°06'0 0.0
2019-Jul-18 08:00N 50°49' W 001°06'0 0.0
2019-Jul-18 07:30N 50°49' W 001°06'0 0.0
2019-Jul-18 07:00N 50°49' W 001°06'0 0.0
2019-Jul-18 06:30N 50°49' W 001°06'0 0.0
2019-Jul-18 06:00N 50°49' W 001°06'0 0.0
2019-Jul-18 05:30N 50°49' W 001°06'1 1.5
2019-Jul-18 05:01N 50°48' W 001°07'611.2
2019-Jul-18 04:31N 50°44' W 001°02'611.1
2019-Jul-18 04:00N 50°38' W 001°03'510.5
2019-Jul-18 03:30N 50°34' W 001°08'510.1
2019-Jul-18 03:00N 50°29' W 001°12'612.0
2019-Jul-18 02:30N 50°24' W 001°16'815.0
2019-Jul-18 02:00N 50°18' W 001°22'1014.9
2019-Jul-18 01:21N 50°10' W 001°32'515.3
2019-Jul-18 01:00N 50°06' W 001°37'815.9
2019-Jul-18 00:30N 49°59' W 001°43'916.2
2019-Jul-17 23:58N 49°52' W 001°51'816.5
2019-Jul-17 23:30N 49°46' W 001°58'815.7
2019-Jul-17 23:00N 49°40' W 002°05'817.1
2019-Jul-17 22:30N 49°32' W 002°11'918.3
2019-Jul-17 22:01N 49°23' W 002°16'918.0
2019-Jul-17 21:30N 49°15' W 002°21'1014.0
2019-Jul-17 20:48N 49°10' W 002°07'0 0.3
2019-Jul-17 19:52N 49°11' W 002°07'0 0.1
2019-Jul-17 18:30N 49°11' W 002°07'612.8
2019-Jul-17 18:00N 49°10' W 002°17'816.5
2019-Jul-17 17:30N 49°17' W 002°23'917.0
2019-Jul-17 16:58N 49°25' W 002°29'3 1.8
2019-Jul-17 15:32N 49°27' W 002°32'0 0.4
2019-Jul-17 14:48N 49°27' W 002°31'310.9
2019-Jul-17 14:30N 49°26' W 002°27'918.4
2019-Jul-17 13:59N 49°32' W 002°15'918.9
2019-Jul-17 13:30N 49°39' W 002°06'1020.3
2019-Jul-17 13:00N 49°48' W 002°00'918.8
2019-Jul-17 12:30N 49°56' W 001°52'917.6
2019-Jul-17 12:00N 50°03' W 001°45'917.3
2019-Jul-17 11:30N 50°10' W 001°37'816.6
2019-Jul-17 11:00N 50°17' W 001°29'816.1
2019-Jul-17 10:30N 50°23' W 001°21'815.7
2019-Jul-17 10:00N 50°30' W 001°15'714.8
2019-Jul-17 09:30N 50°36' W 001°08'714.3
2019-Jul-17 09:00N 50°42' W 001°03'612.7
2019-Jul-17 08:31N 50°48' W 001°07'1 2.3
2019-Jul-17 08:00N 50°49' W 001°06'0 0.0
2019-Jul-17 07:30N 50°49' W 001°06'0 0.0
2019-Jul-17 07:00N 50°49' W 001°06'0 0.0
2019-Jul-17 06:30N 50°49' W 001°06'0 0.0
2019-Jul-17 06:00N 50°49' W 001°06'0 0.0
2019-Jul-17 05:30N 50°49' W 001°06'1 1.3
2019-Jul-17 05:01N 50°49' W 001°07'510.9
2019-Jul-17 04:30N 50°44' W 001°03'510.9
2019-Jul-17 04:01N 50°38' W 001°03'510.4
2019-Jul-17 03:31N 50°34' W 001°08'510.2
2019-Jul-17 03:00N 50°30' W 001°13'610.9
2019-Jul-17 02:29N 50°26' W 001°19'714.8
2019-Jul-17 02:01N 50°20' W 001°25'714.8
2019-Jul-17 01:30N 50°14' W 001°31'714.8
2019-Jul-17 01:01N 50°08' W 001°37'714.8
2019-Jul-17 00:31N 50°01' W 001°44'815.1
2019-Jul-17 00:01N 49°55' W 001°51'714.6
2019-Jul-16 23:31N 49°50' W 001°58'815.1
2019-Jul-16 23:01N 49°43' W 002°02'815.2
2019-Jul-16 22:31N 49°36' W 002°07'816.7
2019-Jul-16 22:00N 49°28' W 002°12'917.3
2019-Jul-16 21:31N 49°20' W 002°17'816.9
2019-Jul-16 21:00N 49°12' W 002°19'814.6
2019-Jul-16 20:28N 49°11' W 002°07'0 0.3
2019-Jul-16 20:00N 49°11' W 002°07'0 0.0
2019-Jul-16 19:30N 49°11' W 002°07'0 0.0
2019-Jul-16 19:00N 49°11' W 002°07'0 0.0
2019-Jul-16 18:26N 49°11' W 002°07'4 9.8
2019-Jul-16 18:00N 49°10' W 002°13'815.6
2019-Jul-16 17:31N 49°14' W 002°23'816.2
2019-Jul-16 17:00N 49°22' W 002°27'611.3
2019-Jul-16 16:28N 49°27' W 002°32'0 0.0
2019-Jul-16 16:00N 49°27' W 002°32'0 0.0
2019-Jul-16 15:30N 49°27' W 002°32'0 0.0
2019-Jul-16 15:00N 49°27' W 002°32'3 6.5
2019-Jul-16 14:31N 49°25' W 002°28'815.9
2019-Jul-16 14:00N 49°30' W 002°18'815.5
2019-Jul-16 13:30N 49°34' W 002°07'815.2
2019-Jul-16 13:00N 49°41' W 002°04'1620.5
2019-Jul-16 12:15N 49°54' W 001°50'518.7
2019-Jul-16 11:59N 49°58' W 001°46'918.1
2019-Jul-16 11:30N 50°06' W 001°39'1017.5
2019-Jul-16 10:56N 50°14' W 001°32'717.1
2019-Jul-16 10:30N 50°21' W 001°26'816.7
2019-Jul-16 10:00N 50°27' W 001°18'815.9
2019-Jul-16 09:30N 50°34' W 001°11'815.5
2019-Jul-16 09:01N 50°40' W 001°04'713.5
2019-Jul-16 08:30N 50°47' W 001°06'2 4.0
2019-Jul-16 08:00N 50°49' W 001°06'0 0.0
2019-Jul-16 07:30N 50°49' W 001°06'0 0.0
2019-Jul-16 07:00N 50°49' W 001°06'0 0.0
2019-Jul-16 06:30N 50°49' W 001°06'0 0.0
2019-Jul-16 06:00N 50°49' W 001°06'0 0.0
2019-Jul-16 05:30N 50°49' W 001°06'1 1.1
2019-Jul-16 05:00N 50°49' W 001°07'510.7
2019-Jul-16 04:31N 50°44' W 001°03'612.5
2019-Jul-16 04:00N 50°38' W 001°02'713.1
2019-Jul-16 03:30N 50°32' W 001°09'3213.4
2019-Jul-16 01:09N 50°07' W 001°37'614.0
2019-Jul-16 00:42N 50°02' W 001°44'313.6
2019-Jul-16 00:30N 50°00' W 001°47'714.0
2019-Jul-15 23:59N 49°54' W 001°54'714.6
2019-Jul-15 23:30N 49°48' W 001°59'612.7
2019-Jul-15 23:00N 49°42' W 002°03'714.1
2019-Jul-15 22:30N 49°36' W 002°08'815.9
2019-Jul-15 22:00N 49°29' W 002°13'917.1
2019-Jul-15 21:30N 49°21' W 002°18'816.6
2019-Jul-15 21:00N 49°13' W 002°19'816.2
2019-Jul-15 20:30N 49°10' W 002°08'1 1.7
2019-Jul-15 20:00N 49°11' W 002°07'0 0.0
2019-Jul-15 19:29N 49°11' W 002°07'0 0.0
2019-Jul-15 18:59N 49°11' W 002°07'0 0.0
2019-Jul-15 18:28N 49°11' W 002°07'2 4.8
2019-Jul-15 18:00N 49°10' W 002°10'714.6
2019-Jul-15 17:31N 49°13' W 002°20'816.2
2019-Jul-15 16:59N 49°20' W 002°26'816.0
2019-Jul-15 16:30N 49°27' W 002°30'1 1.7
2019-Jul-15 16:00N 49°27' W 002°32'0 0.0
2019-Jul-15 15:30N 49°27' W 002°32'0 0.0
2019-Jul-15 15:00N 49°27' W 002°32'3 6.5
2019-Jul-15 14:31N 49°25' W 002°28'713.9
2019-Jul-15 14:01N 49°29' W 002°19'611.7
2019-Jul-15 13:29N 49°33' W 002°11'613.2
2019-Jul-15 13:01N 49°38' W 002°06'1018.7
2019-Jul-15 12:30N 49°48' W 002°02'1119.4
2019-Jul-15 11:54N 49°57' W 001°53'918.7
2019-Jul-15 11:24N 50°05' W 001°44'2718.0
2019-Jul-15 09:55N 50°26' W 001°18'717.1
2019-Jul-15 09:30N 50°32' W 001°12'816.7
2019-Jul-15 09:00N 50°39' W 001°05'714.0
2019-Jul-15 08:31N 50°46' W 001°05'3 5.8
2019-Jul-15 08:00N 50°49' W 001°06'0 0.0
2019-Jul-15 07:31N 50°49' W 001°06'0 0.0
2019-Jul-15 07:00N 50°49' W 001°06'0 0.0
2019-Jul-15 06:30N 50°49' W 001°06'0 0.0
2019-Jul-15 06:00N 50°49' W 001°06'0 0.0
2019-Jul-15 05:30N 50°49' W 001°06'0 0.9
2019-Jul-15 05:00N 50°49' W 001°06'510.5
2019-Jul-15 04:30N 50°44' W 001°03'612.1
2019-Jul-15 04:00N 50°38' W 001°02'611.1
2019-Jul-15 03:30N 50°33' W 001°08'611.2
2019-Jul-15 03:00N 50°29' W 001°13'611.4
2019-Jul-15 02:28N 50°24' W 001°18'2614.8
2019-Jul-15 00:42N 50°02' W 001°41'414.7
2019-Jul-15 00:27N 49°59' W 001°44'814.1
2019-Jul-14 23:54N 49°53' W 001°51'613.9
2019-Jul-14 23:27N 49°48' W 001°57'612.3
2019-Jul-14 23:00N 49°43' W 002°02'712.8
2019-Jul-14 22:28N 49°37' W 002°06'715.1
2019-Jul-14 22:00N 49°31' W 002°11'816.2
2019-Jul-14 21:30N 49°24' W 002°17'816.4
2019-Jul-14 21:00N 49°16' W 002°21'915.3
2019-Jul-14 20:27N 49°10' W 002°12'3 4.5
2019-Jul-14 19:45N 49°11' W 002°07'0 0.0
2019-Jul-14 19:30N 49°11' W 002°07'0 0.0
2019-Jul-14 19:00N 49°11' W 002°07'0 0.9
2019-Jul-14 18:30N 49°10' W 002°07'713.4
2019-Jul-14 18:00N 49°10' W 002°18'715.2
2019-Jul-14 17:30N 49°17' W 002°23'816.4
2019-Jul-14 17:00N 49°24' W 002°28'4 7.4
2019-Jul-14 16:30N 49°27' W 002°32'0 0.0
2019-Jul-14 16:01N 49°27' W 002°32'0 0.0
2019-Jul-14 15:31N 49°27' W 002°32'0 0.1
2019-Jul-14 15:00N 49°27' W 002°32'4 8.2
2019-Jul-14 14:30N 49°26' W 002°26'510.7
2019-Jul-14 14:00N 49°29' W 002°19'611.1
2019-Jul-14 13:30N 49°32' W 002°12'611.3
2019-Jul-14 13:00N 49°37' W 002°07'816.5
2019-Jul-14 12:30N 49°44' W 002°02'1019.4
2019-Jul-14 12:00N 49°53' W 001°55'1019.2
2019-Jul-14 11:30N 50°01' W 001°46'1019.3
2019-Jul-14 11:00N 50°08' W 001°36'1818.3
2019-Jul-14 10:02N 50°22' W 001°19'718.0
2019-Jul-14 09:39N 50°28' W 001°13'217.7
2019-Jul-14 09:30N 50°30' W 001°11'917.5
2019-Jul-14 09:00N 50°38' W 001°06'714.5
2019-Jul-14 08:30N 50°45' W 001°05'3 6.8
2019-Jul-14 08:00N 50°49' W 001°06'0 0.0
2019-Jul-14 07:31N 50°49' W 001°06'0 0.0
2019-Jul-14 07:00N 50°49' W 001°06'0 0.0
2019-Jul-14 06:31N 50°49' W 001°06'0 0.0
2019-Jul-14 06:00N 50°49' W 001°06'0 0.0
2019-Jul-14 05:31N 50°49' W 001°06'0 0.9
2019-Jul-14 05:00N 50°49' W 001°06'510.6
2019-Jul-14 04:31N 50°44' W 001°03'713.1
2019-Jul-14 04:01N 50°37' W 001°03'815.3
2019-Jul-14 03:28N 50°30' W 001°10'815.5
2019-Jul-14 02:58N 50°24' W 001°18'1515.9
2019-Jul-14 02:03N 50°13' W 001°32'515.9
2019-Jul-14 01:42N 50°08' W 001°36'1715.0
2019-Jul-14 00:34N 49°54' W 001°51'215.0
2019-Jul-14 00:25N 49°52' W 001°53'614.5
2019-Jul-14 00:00N 49°47' W 001°58'812.3
2019-Jul-13 23:22N 49°41' W 002°05'513.5
2019-Jul-13 22:59N 49°36' W 002°09'1014.6
2019-Jul-13 22:17N 49°29' W 002°20'414.1
2019-Jul-13 22:00N 49°27' W 002°25'4 3.5
2019-Jul-13 20:44N 49°27' W 002°32'1 2.8
2019-Jul-13 20:27N 49°27' W 002°30'715.5
2019-Jul-13 20:00N 49°22' W 002°24'816.9
2019-Jul-13 19:30N 49°14' W 002°20'915.6
2019-Jul-13 18:56N 49°10' W 002°08'1 0.5
2019-Jul-13 17:18N 49°11' W 002°07'0 0.0
2019-Jul-13 16:49N 49°11' W 002°07'0 0.0
2019-Jul-13 15:55N 49°11' W 002°07'410.1
2019-Jul-13 15:30N 49°10' W 002°13'714.5
2019-Jul-13 15:01N 49°15' W 002°21'4 8.7
2019-Jul-13 14:30N 49°19' W 002°19'5 9.6
2019-Jul-13 14:00N 49°23' W 002°16'1411.7
2019-Jul-13 12:49N 49°36' W 002°08'619.3
2019-Jul-13 12:30N 49°42' W 002°05'1019.3
2019-Jul-13 12:00N 49°50' W 001°56'1218.7
2019-Jul-13 11:21N 50°00' W 001°46'918.7
2019-Jul-13 10:52N 50°07' W 001°38'2218.5
2019-Jul-13 09:42N 50°25' W 001°18'418.4
2019-Jul-13 09:30N 50°28' W 001°15'918.5
2019-Jul-13 09:00N 50°36' W 001°07'816.7
2019-Jul-13 08:31N 50°44' W 001°04'510.4
2019-Jul-13 08:00N 50°49' W 001°06'0 0.8
2019-Jul-13 07:30N 50°49' W 001°06'0 0.0
2019-Jul-13 07:00N 50°49' W 001°06'0 0.0
2019-Jul-13 06:30N 50°49' W 001°06'0 0.0
2019-Jul-13 06:00N 50°49' W 001°06'0 0.0
2019-Jul-13 05:30N 50°49' W 001°06'1 1.8
2019-Jul-13 05:00N 50°48' W 001°07'611.9
2019-Jul-13 04:30N 50°43' W 001°03'714.5
2019-Jul-13 04:01N 50°36' W 001°08'2315.5
2019-Jul-13 02:30N 50°16' W 001°26'1016.1
2019-Jul-13 01:53N 50°08' W 001°35'716.1
2019-Jul-13 01:28N 50°02' W 001°41'715.8
2019-Jul-13 01:01N 49°56' W 001°47'815.7
2019-Jul-13 00:28N 49°50' W 001°56'714.7
2019-Jul-13 00:00N 49°44' W 002°01'713.8
2019-Jul-12 23:31N 49°38' W 002°06'714.4
2019-Jul-12 23:01N 49°32' W 002°13'815.3
2019-Jul-12 22:31N 49°28' W 002°23'510.6
2019-Jul-12 22:00N 49°27' W 002°31'0 0.9
2019-Jul-12 21:30N 49°27' W 002°32'0 0.0
2019-Jul-12 21:00N 49°27' W 002°32'0 0.0
2019-Jul-12 20:30N 49°27' W 002°32'3 6.9
2019-Jul-12 20:01N 49°25' W 002°29'816.5
2019-Jul-12 19:31N 49°17' W 002°23'816.8
2019-Jul-12 19:01N 49°10' W 002°16'6 8.4
2019-Jul-12 18:18N 49°11' W 002°07'0 0.0
2019-Jul-12 18:00N 49°11' W 002°07'0 0.0
2019-Jul-12 17:24N 49°11' W 002°07'0 0.0
2019-Jul-12 16:54N 49°11' W 002°07'0 0.0
2019-Jul-12 16:00N 49°11' W 002°07'4 8.0
2019-Jul-12 15:30N 49°10' W 002°13'714.6
2019-Jul-12 15:00N 49°15' W 002°21'714.8
2019-Jul-12 14:30N 49°22' W 002°17'714.0
2019-Jul-12 14:00N 49°28' W 002°12'510.9
2019-Jul-12 13:30N 49°33' W 002°09'1115.8
2019-Jul-12 12:49N 49°44' W 002°05'516.8
2019-Jul-12 12:31N 49°49' W 002°02'917.3
2019-Jul-12 12:00N 49°56' W 001°54'917.1
2019-Jul-12 11:30N 50°03' W 001°47'2817.9
2019-Jul-12 09:54N 50°25' W 001°20'718.0
2019-Jul-12 09:31N 50°31' W 001°13'918.6
2019-Jul-12 09:01N 50°39' W 001°05'714.5
2019-Jul-12 08:31N 50°46' W 001°06'3 5.2
2019-Jul-12 08:01N 50°49' W 001°06'0 0.0
2019-Jul-12 07:30N 50°49' W 001°06'0 0.0
2019-Jul-12 07:01N 50°49' W 001°06'0 0.0
2019-Jul-12 06:31N 50°49' W 001°06'0 0.0
2019-Jul-12 06:01N 50°49' W 001°06'0 0.0
2019-Jul-12 05:31N 50°49' W 001°06'0 0.5
2019-Jul-12 05:00N 50°49' W 001°06'5 9.5
2019-Jul-12 04:30N 50°44' W 001°04'612.9
2019-Jul-12 04:00N 50°38' W 001°06'611.3
2019-Jul-12 03:31N 50°33' W 001°11'811.7
2019-Jul-12 02:47N 50°25' W 001°16'1514.1
2019-Jul-12 01:45N 50°13' W 001°28'417.8
2019-Jul-12 01:30N 50°10' W 001°33'917.4
2019-Jul-12 01:01N 50°03' W 001°42'917.1
2019-Jul-12 00:30N 49°56' W 001°50'1017.0
2019-Jul-11 23:54N 49°47' W 001°58'616.1
2019-Jul-11 23:30N 49°42' W 002°03'815.8
2019-Jul-11 23:01N 49°35' W 002°08'816.2
2019-Jul-11 22:31N 49°30' W 002°18'815.4
2019-Jul-11 22:01N 49°25' W 002°28'3 6.6
2019-Jul-11 21:30N 49°27' W 002°32'0 0.0
2019-Jul-11 21:01N 49°27' W 002°32'0 0.0
2019-Jul-11 20:31N 49°27' W 002°32'1 2.1
2019-Jul-11 20:01N 49°27' W 002°30'816.0
2019-Jul-11 19:31N 49°20' W 002°25'816.6
2019-Jul-11 19:00N 49°13' W 002°19'815.4
2019-Jul-11 18:30N 49°10' W 002°08'1 2.3
2019-Jul-11 18:00N 49°11' W 002°07'0 0.0
2019-Jul-11 17:30N 49°11' W 002°07'0 0.0
2019-Jul-11 17:00N 49°11' W 002°07'0 0.0
2019-Jul-11 16:30N 49°11' W 002°07'0 0.0
2019-Jul-11 16:00N 49°11' W 002°07'5 9.0
2019-Jul-11 15:30N 49°10' W 002°14'714.0
2019-Jul-11 15:01N 49°15' W 002°21'714.6
2019-Jul-11 14:30N 49°22' W 002°17'714.7
2019-Jul-11 14:01N 49°29' W 002°13'714.7
2019-Jul-11 13:30N 49°36' W 002°08'813.6
2019-Jul-11 12:54N 49°43' W 002°03'513.9
2019-Jul-11 12:30N 49°48' W 001°58'815.9
2019-Jul-11 12:00N 49°53' W 001°49'816.8
2019-Jul-11 11:30N 50°00' W 001°42'917.4
2019-Jul-11 11:00N 50°07' W 001°34'917.6
2019-Jul-11 10:30N 50°15' W 001°27'917.5
2019-Jul-11 10:00N 50°23' W 001°21'917.9
2019-Jul-11 09:30N 50°30' W 001°14'918.4
2019-Jul-11 09:00N 50°38' W 001°06'815.1
2019-Jul-11 08:30N 50°46' W 001°05'3 6.4
2019-Jul-11 08:00N 50°49' W 001°06'0 0.0
2019-Jul-11 07:30N 50°49' W 001°06'0 0.0
2019-Jul-11 07:00N 50°49' W 001°06'0 0.0
2019-Jul-11 06:30N 50°49' W 001°06'0 0.0
2019-Jul-11 06:00N 50°49' W 001°06'0 0.0
2019-Jul-11 05:30N 50°49' W 001°06'3 5.2
2019-Jul-11 05:01N 50°46' W 001°06'714.0
2019-Jul-11 04:31N 50°39' W 001°05'815.3
2019-Jul-11 04:01N 50°32' W 001°10'815.7
2019-Jul-11 03:31N 50°25' W 001°16'918.1
2019-Jul-11 03:00N 50°18' W 001°24'918.6
2019-Jul-11 02:30N 50°10' W 001°32'1018.8
2019-Jul-11 02:00N 50°02' W 001°41'919.0
2019-Jul-11 01:31N 49°55' W 001°50'1019.4
2019-Jul-11 01:01N 49°47' W 001°59'1020.7
2019-Jul-11 00:30N 49°38' W 002°05'918.7
2019-Jul-11 00:01N 49°29' W 002°11'917.9
2019-Jul-10 23:31N 49°21' W 002°18'816.7
2019-Jul-10 23:01N 49°13' W 002°20'813.4
2019-Jul-10 22:24N 49°10' W 002°09'1 3.3
2019-Jul-10 22:00N 49°11' W 002°07'0 0.0
2019-Jul-10 21:30N 49°11' W 002°07'0 0.0
2019-Jul-10 21:00N 49°11' W 002°07'0 0.0
2019-Jul-10 20:30N 49°11' W 002°07'4 7.6
2019-Jul-10 19:56N 49°10' W 002°13'511.9
2019-Jul-10 19:30N 49°11' W 002°21'611.2
2019-Jul-10 19:00N 49°17' W 002°23'510.7
2019-Jul-10 18:30N 49°21' W 002°27'612.5
2019-Jul-10 18:00N 49°27' W 002°31'1 1.5
2019-Jul-10 17:30N 49°27' W 002°32'0 0.0
2019-Jul-10 17:00N 49°27' W 002°32'0 0.0
2019-Jul-10 16:30N 49°27' W 002°32'0 0.0
2019-Jul-10 16:01N 49°27' W 002°32'1 2.1
2019-Jul-10 15:31N 49°27' W 002°30'611.6
2019-Jul-10 15:00N 49°29' W 002°21'816.0
2019-Jul-10 14:31N 49°33' W 002°11'814.3
2019-Jul-10 13:59N 49°40' W 002°06'612.3
2019-Jul-10 13:30N 49°45' W 002°02'713.1
2019-Jul-10 13:00N 49°51' W 001°57'714.9
2019-Jul-10 12:30N 49°57' W 001°52'815.5
2019-Jul-10 12:01N 50°04' W 001°45'816.0
2019-Jul-10 11:30N 50°10' W 001°37'816.6
2019-Jul-10 11:00N 50°16' W 001°29'917.0
2019-Jul-10 10:30N 50°23' W 001°21'917.2
2019-Jul-10 10:00N 50°30' W 001°13'917.6
2019-Jul-10 09:30N 50°37' W 001°04'714.1
2019-Jul-10 09:01N 50°44' W 001°04'5 9.8
2019-Jul-10 08:31N 50°49' W 001°06'0 0.8
2019-Jul-10 08:01N 50°49' W 001°06'0 0.0
2019-Jul-10 07:31N 50°49' W 001°06'0 0.0
2019-Jul-10 07:00N 50°49' W 001°06'0 0.0
2019-Jul-10 06:31N 50°49' W 001°06'0 0.0
2019-Jul-10 06:01N 50°49' W 001°06'0 0.0
2019-Jul-10 05:31N 50°49' W 001°06'3 5.3
2019-Jul-10 05:00N 50°46' W 001°06'713.6
2019-Jul-10 04:30N 50°39' W 001°05'713.2
2019-Jul-10 04:00N 50°34' W 001°10'914.5
2019-Jul-10 03:25N 50°26' W 001°17'717.5
2019-Jul-10 02:59N 50°20' W 001°23'1518.1
2019-Jul-10 02:09N 50°07' W 001°35'318.4
2019-Jul-10 01:58N 50°04' W 001°38'919.1
2019-Jul-10 01:30N 49°57' W 001°47'1019.3
2019-Jul-10 01:01N 49°49' W 001°55'1121.3
2019-Jul-10 00:31N 49°40' W 002°04'1019.6
2019-Jul-10 00:01N 49°32' W 002°11'918.6
2019-Jul-09 23:31N 49°23' W 002°16'918.0
2019-Jul-09 23:01N 49°15' W 002°21'814.5
2019-Jul-09 22:26N 49°10' W 002°11'3 5.7
2019-Jul-09 21:58N 49°11' W 002°07'0 0.0
2019-Jul-09 21:30N 49°11' W 002°07'0 0.0
2019-Jul-09 21:00N 49°11' W 002°07'0 0.0
2019-Jul-09 20:30N 49°11' W 002°07'0 0.0
2019-Jul-09 20:00N 49°11' W 002°07'2 3.9
2019-Jul-09 19:28N 49°10' W 002°10'714.3
2019-Jul-09 19:00N 49°12' W 002°19'612.4
2019-Jul-09 18:30N 49°18' W 002°24'  
Track history (hours):
 
Tides and Currents Weather Stations Pressure Air Temp Water Temp Dewpoint Dewpoint Depression Visibility Wind Speed Wind Dir Waves Ship Positions

Commodore Clipper

Operator: Condor Marine Services

Last reported at 2019-Jul-19 18:25 UTC. Time now 2019-Jul-19 18:33 UTC.
Position N 49°10' W 002°14'.

Length 130 m; draft 5.2 m.

Type: Ship. MMSI: 308094000.

Date/timePositionNaut miles runAvg speedWind from/ knotsBaromVisibWave heightAir tempDewpointWater temp
2019-Jul-19 18:25N 49°10' W 002°14'716.4
2019-Jul-19 18:01N 49°14' W 002°22'817.0
2019-Jul-19 17:31N 49°22' W 002°27'612.3
2019-Jul-19 17:00N 49°27' W 002°32'0 0.0
2019-Jul-19 16:30N 49°27' W 002°32'0 0.0
2019-Jul-19 16:00N 49°27' W 002°32'0 0.0
2019-Jul-19 15:30N 49°27' W 002°32'4 8.6
2019-Jul-19 15:01N 49°27' W 002°25'918.5
2019-Jul-19 14:31N 49°32' W 002°14'918.8
2019-Jul-19 14:01N 49°40' W 002°06'1019.7
2019-Jul-19 13:30N 49°49' W 001°59'917.0
2019-Jul-19 13:00N 49°57' W 001°53'816.5
2019-Jul-19 12:30N 50°03' W 001°45'815.8
2019-Jul-19 12:00N 50°09' W 001°37'815.4
2019-Jul-19 11:30N 50°15' W 001°30'1114.9
2019-Jul-19 10:46N 50°24' W 001°20'514.4
2019-Jul-19 10:27N 50°28' W 001°15'614.2
2019-Jul-19 10:00N 50°33' W 001°11'713.8
2019-Jul-19 09:30N 50°39' W 001°05'713.3
2019-Jul-19 09:01N 50°46' W 001°05'3 6.1
2019-Jul-19 08:31N 50°49' W 001°06'0 0.0
2019-Jul-19 08:01N 50°49' W 001°06'0 0.0
2019-Jul-19 07:31N 50°49' W 001°06'0 0.0
2019-Jul-19 07:01N 50°49' W 001°06'0 0.0
2019-Jul-19 06:31N 50°49' W 001°06'0 0.0
2019-Jul-19 06:01N 50°49' W 001°06'0 0.0
2019-Jul-19 05:31N 50°49' W 001°06'1 2.0
2019-Jul-19 05:01N 50°48' W 001°07'611.1
2019-Jul-19 04:31N 50°44' W 001°02'713.5
2019-Jul-19 04:01N 50°37' W 001°04'714.4
2019-Jul-19 03:31N 50°31' W 001°11'714.5
2019-Jul-19 03:00N 50°25' W 001°18'714.5
2019-Jul-19 02:30N 50°20' W 001°25'715.0
2019-Jul-19 02:00N 50°13' W 001°31'815.6
2019-Jul-19 01:30N 50°06' W 001°37'815.8
2019-Jul-19 01:00N 49°60' W 001°43'816.2
2019-Jul-19 00:31N 49°53' W 001°49'816.6
2019-Jul-19 00:01N 49°47' W 001°58'816.0
2019-Jul-18 23:31N 49°40' W 002°05'917.1
2019-Jul-18 23:00N 49°32' W 002°11'918.3
2019-Jul-18 22:31N 49°24' W 002°16'918.1
2019-Jul-18 22:01N 49°15' W 002°20'816.0
2019-Jul-18 21:29N 49°10' W 002°11'3 1.0
2019-Jul-18 18:54N 49°11' W 002°07'4 9.3
2019-Jul-18 18:30N 49°10' W 002°13'815.8
2019-Jul-18 18:00N 49°15' W 002°22'917.3
2019-Jul-18 17:31N 49°23' W 002°27'611.0
2019-Jul-18 17:00N 49°27' W 002°32'0 0.0
2019-Jul-18 16:30N 49°27' W 002°32'0 0.0
2019-Jul-18 16:00N 49°27' W 002°32'1 1.7
2019-Jul-18 15:31N 49°27' W 002°30'713.4
2019-Jul-18 15:01N 49°29' W 002°20'917.9
2019-Jul-18 14:29N 49°34' W 002°09'1020.2
2019-Jul-18 14:00N 49°43' W 002°03'1019.8
2019-Jul-18 13:31N 49°51' W 001°54'918.2
2019-Jul-18 13:01N 49°59' W 001°46'917.4
2019-Jul-18 12:31N 50°06' W 001°39'816.8
2019-Jul-18 12:00N 50°13' W 001°31'816.1
2019-Jul-18 11:31N 50°19' W 001°23'915.6
2019-Jul-18 10:57N 50°27' W 001°18'714.9
2019-Jul-18 10:30N 50°32' W 001°12'714.7
2019-Jul-18 10:00N 50°39' W 001°05'713.7
2019-Jul-18 09:31N 50°45' W 001°05'3 6.6
2019-Jul-18 09:00N 50°49' W 001°06'0 0.0
2019-Jul-18 08:30N 50°49' W 001°06'0 0.0
2019-Jul-18 08:00N 50°49' W 001°06'0 0.0
2019-Jul-18 07:30N 50°49' W 001°06'0 0.0
2019-Jul-18 07:00N 50°49' W 001°06'0 0.0
2019-Jul-18 06:30N 50°49' W 001°06'0 0.0
2019-Jul-18 06:00N 50°49' W 001°06'0 0.0
2019-Jul-18 05:30N 50°49' W 001°06'1 1.5
2019-Jul-18 05:01N 50°48' W 001°07'611.2
2019-Jul-18 04:31N 50°44' W 001°02'611.1
2019-Jul-18 04:00N 50°38' W 001°03'510.5
2019-Jul-18 03:30N 50°34' W 001°08'510.1
2019-Jul-18 03:00N 50°29' W 001°12'612.0
2019-Jul-18 02:30N 50°24' W 001°16'815.0
2019-Jul-18 02:00N 50°18' W 001°22'1014.9
2019-Jul-18 01:21N 50°10' W 001°32'515.3
2019-Jul-18 01:00N 50°06' W 001°37'815.9
2019-Jul-18 00:30N 49°59' W 001°43'916.2
2019-Jul-17 23:58N 49°52' W 001°51'816.5
2019-Jul-17 23:30N 49°46' W 001°58'815.7
2019-Jul-17 23:00N 49°40' W 002°05'817.1
2019-Jul-17 22:30N 49°32' W 002°11'918.3
2019-Jul-17 22:01N 49°23' W 002°16'918.0
2019-Jul-17 21:30N 49°15' W 002°21'1014.0
2019-Jul-17 20:48N 49°10' W 002°07'0 0.3
2019-Jul-17 19:52N 49°11' W 002°07'0 0.1
2019-Jul-17 18:30N 49°11' W 002°07'612.8
2019-Jul-17 18:00N 49°10' W 002°17'816.5
2019-Jul-17 17:30N 49°17' W 002°23'917.0
2019-Jul-17 16:58N 49°25' W 002°29'3 1.8
2019-Jul-17 15:32N 49°27' W 002°32'0 0.4
2019-Jul-17 14:48N 49°27' W 002°31'310.9
2019-Jul-17 14:30N 49°26' W 002°27'918.4
2019-Jul-17 13:59N 49°32' W 002°15'918.9
2019-Jul-17 13:30N 49°39' W 002°06'1020.3
2019-Jul-17 13:00N 49°48' W 002°00'918.8
2019-Jul-17 12:30N 49°56' W 001°52'917.6
2019-Jul-17 12:00N 50°03' W 001°45'917.3
2019-Jul-17 11:30N 50°10' W 001°37'816.6
2019-Jul-17 11:00N 50°17' W 001°29'816.1
2019-Jul-17 10:30N 50°23' W 001°21'815.7
2019-Jul-17 10:00N 50°30' W 001°15'714.8
2019-Jul-17 09:30N 50°36' W 001°08'714.3
2019-Jul-17 09:00N 50°42' W 001°03'612.7
2019-Jul-17 08:31N 50°48' W 001°07'1 2.3
2019-Jul-17 08:00N 50°49' W 001°06'0 0.0
2019-Jul-17 07:30N 50°49' W 001°06'0 0.0
2019-Jul-17 07:00N 50°49' W 001°06'0 0.0
2019-Jul-17 06:30N 50°49' W 001°06'0 0.0
2019-Jul-17 06:00N 50°49' W 001°06'0 0.0
2019-Jul-17 05:30N 50°49' W 001°06'1 1.3
2019-Jul-17 05:01N 50°49' W 001°07'510.9
2019-Jul-17 04:30N 50°44' W 001°03'510.9
2019-Jul-17 04:01N 50°38' W 001°03'510.4
2019-Jul-17 03:31N 50°34' W 001°08'510.2
2019-Jul-17 03:00N 50°30' W 001°13'610.9
2019-Jul-17 02:29N 50°26' W 001°19'714.8
2019-Jul-17 02:01N 50°20' W 001°25'714.8
2019-Jul-17 01:30N 50°14' W 001°31'714.8
2019-Jul-17 01:01N 50°08' W 001°37'714.8
2019-Jul-17 00:31N 50°01' W 001°44'815.1
2019-Jul-17 00:01N 49°55' W 001°51'714.6
2019-Jul-16 23:31N 49°50' W 001°58'815.1
2019-Jul-16 23:01N 49°43' W 002°02'815.2
2019-Jul-16 22:31N 49°36' W 002°07'816.7
2019-Jul-16 22:00N 49°28' W 002°12'917.3
2019-Jul-16 21:31N 49°20' W 002°17'816.9
2019-Jul-16 21:00N 49°12' W 002°19'814.6
2019-Jul-16 20:28N 49°11' W 002°07'0 0.3
2019-Jul-16 20:00N 49°11' W 002°07'0 0.0
2019-Jul-16 19:30N 49°11' W 002°07'0 0.0
2019-Jul-16 19:00N 49°11' W 002°07'0 0.0
2019-Jul-16 18:26N 49°11' W 002°07'4 9.8
2019-Jul-16 18:00N 49°10' W 002°13'815.6
2019-Jul-16 17:31N 49°14' W 002°23'816.2
2019-Jul-16 17:00N 49°22' W 002°27'611.3
2019-Jul-16 16:28N 49°27' W 002°32'0 0.0
2019-Jul-16 16:00N 49°27' W 002°32'0 0.0
2019-Jul-16 15:30N 49°27' W 002°32'0 0.0
2019-Jul-16 15:00N 49°27' W 002°32'3 6.5
2019-Jul-16 14:31N 49°25' W 002°28'815.9
2019-Jul-16 14:00N 49°30' W 002°18'815.5
2019-Jul-16 13:30N 49°34' W 002°07'815.2
2019-Jul-16 13:00N 49°41' W 002°04'1620.5
2019-Jul-16 12:15N 49°54' W 001°50'518.7
2019-Jul-16 11:59N 49°58' W 001°46'918.1
2019-Jul-16 11:30N 50°06' W 001°39'1017.5
2019-Jul-16 10:56N 50°14' W 001°32'717.1
2019-Jul-16 10:30N 50°21' W 001°26'816.7
2019-Jul-16 10:00N 50°27' W 001°18'815.9
2019-Jul-16 09:30N 50°34' W 001°11'815.5
2019-Jul-16 09:01N 50°40' W 001°04'713.5
2019-Jul-16 08:30N 50°47' W 001°06'2 4.0
2019-Jul-16 08:00N 50°49' W 001°06'0 0.0
2019-Jul-16 07:30N 50°49' W 001°06'0 0.0
2019-Jul-16 07:00N 50°49' W 001°06'0 0.0
2019-Jul-16 06:30N 50°49' W 001°06'0 0.0
2019-Jul-16 06:00N 50°49' W 001°06'0 0.0
2019-Jul-16 05:30N 50°49' W 001°06'1 1.1
2019-Jul-16 05:00N 50°49' W 001°07'510.7
2019-Jul-16 04:31N 50°44' W 001°03'612.5
2019-Jul-16 04:00N 50°38' W 001°02'713.1
2019-Jul-16 03:30N 50°32' W 001°09'3213.4
2019-Jul-16 01:09N 50°07' W 001°37'614.0
2019-Jul-16 00:42N 50°02' W 001°44'313.6
2019-Jul-16 00:30N 50°00' W 001°47'714.0
2019-Jul-15 23:59N 49°54' W 001°54'714.6
2019-Jul-15 23:30N 49°48' W 001°59'612.7
2019-Jul-15 23:00N 49°42' W 002°03'714.1
2019-Jul-15 22:30N 49°36' W 002°08'815.9
2019-Jul-15 22:00N 49°29' W 002°13'917.1
2019-Jul-15 21:30N 49°21' W 002°18'816.6
2019-Jul-15 21:00N 49°13' W 002°19'816.2
2019-Jul-15 20:30N 49°10' W 002°08'1 1.7
2019-Jul-15 20:00N 49°11' W 002°07'0 0.0
2019-Jul-15 19:29N 49°11' W 002°07'0 0.0
2019-Jul-15 18:59N 49°11' W 002°07'0 0.0
2019-Jul-15 18:28N 49°11' W 002°07'2 4.8
2019-Jul-15 18:00N 49°10' W 002°10'714.6
2019-Jul-15 17:31N 49°13' W 002°20'816.2
2019-Jul-15 16:59N 49°20' W 002°26'816.0
2019-Jul-15 16:30N 49°27' W 002°30'1 1.7
2019-Jul-15 16:00N 49°27' W 002°32'0 0.0
2019-Jul-15 15:30N 49°27' W 002°32'0 0.0
2019-Jul-15 15:00N 49°27' W 002°32'3 6.5
2019-Jul-15 14:31N 49°25' W 002°28'713.9
2019-Jul-15 14:01N 49°29' W 002°19'611.7
2019-Jul-15 13:29N 49°33' W 002°11'613.2
2019-Jul-15 13:01N 49°38' W 002°06'1018.7
2019-Jul-15 12:30N 49°48' W 002°02'1119.4
2019-Jul-15 11:54N 49°57' W 001°53'918.7
2019-Jul-15 11:24N 50°05' W 001°44'2718.0
2019-Jul-15 09:55N 50°26' W 001°18'717.1
2019-Jul-15 09:30N 50°32' W 001°12'816.7
2019-Jul-15 09:00N 50°39' W 001°05'714.0
2019-Jul-15 08:31N 50°46' W 001°05'3 5.8
2019-Jul-15 08:00N 50°49' W 001°06'0 0.0
2019-Jul-15 07:31N 50°49' W 001°06'0 0.0
2019-Jul-15 07:00N 50°49' W 001°06'0 0.0
2019-Jul-15 06:30N 50°49' W 001°06'0 0.0
2019-Jul-15 06:00N 50°49' W 001°06'0 0.0
2019-Jul-15 05:30N 50°49' W 001°06'0 0.9
2019-Jul-15 05:00N 50°49' W 001°06'510.5
2019-Jul-15 04:30N 50°44' W 001°03'612.1
2019-Jul-15 04:00N 50°38' W 001°02'611.1
2019-Jul-15 03:30N 50°33' W 001°08'611.2
2019-Jul-15 03:00N 50°29' W 001°13'611.4
2019-Jul-15 02:28N 50°24' W 001°18'2614.8
2019-Jul-15 00:42N 50°02' W 001°41'414.7
2019-Jul-15 00:27N 49°59' W 001°44'814.1
2019-Jul-14 23:54N 49°53' W 001°51'613.9
2019-Jul-14 23:27N 49°48' W 001°57'612.3
2019-Jul-14 23:00N 49°43' W 002°02'712.8
2019-Jul-14 22:28N 49°37' W 002°06'715.1
2019-Jul-14 22:00N 49°31' W 002°11'816.2
2019-Jul-14 21:30N 49°24' W 002°17'816.4
2019-Jul-14 21:00N 49°16' W 002°21'915.3
2019-Jul-14 20:27N 49°10' W 002°12'3 4.5
2019-Jul-14 19:45N 49°11' W 002°07'0 0.0
2019-Jul-14 19:30N 49°11' W 002°07'0 0.0
2019-Jul-14 19:00N 49°11' W 002°07'0 0.9
2019-Jul-14 18:30N 49°10' W 002°07'713.4
2019-Jul-14 18:00N 49°10' W 002°18'715.2
2019-Jul-14 17:30N 49°17' W 002°23'816.4
2019-Jul-14 17:00N 49°24' W 002°28'4 7.4
2019-Jul-14 16:30N 49°27' W 002°32'0 0.0
2019-Jul-14 16:01N 49°27' W 002°32'0 0.0
2019-Jul-14 15:31N 49°27' W 002°32'0 0.1
2019-Jul-14 15:00N 49°27' W 002°32'4 8.2
2019-Jul-14 14:30N 49°26' W 002°26'510.7
2019-Jul-14 14:00N 49°29' W 002°19'611.1
2019-Jul-14 13:30N 49°32' W 002°12'611.3
2019-Jul-14 13:00N 49°37' W 002°07'816.5
2019-Jul-14 12:30N 49°44' W 002°02'1019.4
2019-Jul-14 12:00N 49°53' W 001°55'1019.2
2019-Jul-14 11:30N 50°01' W 001°46'1019.3
2019-Jul-14 11:00N 50°08' W 001°36'1818.3
2019-Jul-14 10:02N 50°22' W 001°19'718.0
2019-Jul-14 09:39N 50°28' W 001°13'217.7
2019-Jul-14 09:30N 50°30' W 001°11'917.5
2019-Jul-14 09:00N 50°38' W 001°06'714.5
2019-Jul-14 08:30N 50°45' W 001°05'3 6.8
2019-Jul-14 08:00N 50°49' W 001°06'0 0.0
2019-Jul-14 07:31N 50°49' W 001°06'0 0.0
2019-Jul-14 07:00N 50°49' W 001°06'0 0.0
2019-Jul-14 06:31N 50°49' W 001°06'0 0.0
2019-Jul-14 06:00N 50°49' W 001°06'0 0.0
2019-Jul-14 05:31N 50°49' W 001°06'0 0.9
2019-Jul-14 05:00N 50°49' W 001°06'510.6
2019-Jul-14 04:31N 50°44' W 001°03'713.1
2019-Jul-14 04:01N 50°37' W 001°03'815.3
2019-Jul-14 03:28N 50°30' W 001°10'815.5
2019-Jul-14 02:58N 50°24' W 001°18'1515.9
2019-Jul-14 02:03N 50°13' W 001°32'515.9
2019-Jul-14 01:42N 50°08' W 001°36'1715.0
2019-Jul-14 00:34N 49°54' W 001°51'215.0
2019-Jul-14 00:25N 49°52' W 001°53'614.5
2019-Jul-14 00:00N 49°47' W 001°58'812.3
2019-Jul-13 23:22N 49°41' W 002°05'513.5
2019-Jul-13 22:59N 49°36' W 002°09'1014.6
2019-Jul-13 22:17N 49°29' W 002°20'414.1
2019-Jul-13 22:00N 49°27' W 002°25'4 3.5
2019-Jul-13 20:44N 49°27' W 002°32'1 2.8
2019-Jul-13 20:27N 49°27' W 002°30'715.5
2019-Jul-13 20:00N 49°22' W 002°24'816.9
2019-Jul-13 19:30N 49°14' W 002°20'915.6
2019-Jul-13 18:56N 49°10' W 002°08'1 0.5
2019-Jul-13 17:18N 49°11' W 002°07'0 0.0
2019-Jul-13 16:49N 49°11' W 002°07'0 0.0
2019-Jul-13 15:55N 49°11' W 002°07'410.1
2019-Jul-13 15:30N 49°10' W 002°13'714.5
2019-Jul-13 15:01N 49°15' W 002°21'4 8.7
2019-Jul-13 14:30N 49°19' W 002°19'5 9.6
2019-Jul-13 14:00N 49°23' W 002°16'1411.7
2019-Jul-13 12:49N 49°36' W 002°08'619.3
2019-Jul-13 12:30N 49°42' W 002°05'1019.3
2019-Jul-13 12:00N 49°50' W 001°56'1218.7
2019-Jul-13 11:21N 50°00' W 001°46'918.7
2019-Jul-13 10:52N 50°07' W 001°38'2218.5
2019-Jul-13 09:42N 50°25' W 001°18'418.4
2019-Jul-13 09:30N 50°28' W 001°15'918.5
2019-Jul-13 09:00N 50°36' W 001°07'816.7
2019-Jul-13 08:31N 50°44' W 001°04'510.4
2019-Jul-13 08:00N 50°49' W 001°06'0 0.8
2019-Jul-13 07:30N 50°49' W 001°06'0 0.0
2019-Jul-13 07:00N 50°49' W 001°06'0 0.0
2019-Jul-13 06:30N 50°49' W 001°06'0 0.0
2019-Jul-13 06:00N 50°49' W 001°06'0 0.0
2019-Jul-13 05:30N 50°49' W 001°06'1 1.8
2019-Jul-13 05:00N 50°48' W 001°07'611.9
2019-Jul-13 04:30N 50°43' W 001°03'714.5
2019-Jul-13 04:01N 50°36' W 001°08'2315.5
2019-Jul-13 02:30N 50°16' W 001°26'1016.1
2019-Jul-13 01:53N 50°08' W 001°35'716.1
2019-Jul-13 01:28N 50°02' W 001°41'715.8
2019-Jul-13 01:01N 49°56' W 001°47'815.7
2019-Jul-13 00:28N 49°50' W 001°56'714.7
2019-Jul-13 00:00N 49°44' W 002°01'713.8
2019-Jul-12 23:31N 49°38' W 002°06'714.4
2019-Jul-12 23:01N 49°32' W 002°13'815.3
2019-Jul-12 22:31N 49°28' W 002°23'510.6
2019-Jul-12 22:00N 49°27' W 002°31'0 0.9
2019-Jul-12 21:30N 49°27' W 002°32'0 0.0
2019-Jul-12 21:00N 49°27' W 002°32'0 0.0
2019-Jul-12 20:30N 49°27' W 002°32'3 6.9
2019-Jul-12 20:01N 49°25' W 002°29'816.5
2019-Jul-12 19:31N 49°17' W 002°23'816.8
2019-Jul-12 19:01N 49°10' W 002°16'6 8.4
2019-Jul-12 18:18N 49°11' W 002°07'0 0.0
2019-Jul-12 18:00N 49°11' W 002°07'0 0.0
2019-Jul-12 17:24N 49°11' W 002°07'0 0.0
2019-Jul-12 16:54N 49°11' W 002°07'0 0.0
2019-Jul-12 16:00N 49°11' W 002°07'4 8.0
2019-Jul-12 15:30N 49°10' W 002°13'714.6
2019-Jul-12 15:00N 49°15' W 002°21'714.8
2019-Jul-12 14:30N 49°22' W 002°17'714.0
2019-Jul-12 14:00N 49°28' W 002°12'510.9
2019-Jul-12 13:30N 49°33' W 002°09'1115.8
2019-Jul-12 12:49N 49°44' W 002°05'516.8
2019-Jul-12 12:31N 49°49' W 002°02'917.3
2019-Jul-12 12:00N 49°56' W 001°54'917.1
2019-Jul-12 11:30N 50°03' W 001°47'2817.9
2019-Jul-12 09:54N 50°25' W 001°20'718.0
2019-Jul-12 09:31N 50°31' W 001°13'918.6
2019-Jul-12 09:01N 50°39' W 001°05'714.5
2019-Jul-12 08:31N 50°46' W 001°06'3 5.2
2019-Jul-12 08:01N 50°49' W 001°06'0 0.0
2019-Jul-12 07:30N 50°49' W 001°06'0 0.0
2019-Jul-12 07:01N 50°49' W 001°06'0 0.0
2019-Jul-12 06:31N 50°49' W 001°06'0 0.0
2019-Jul-12 06:01N 50°49' W 001°06'0 0.0
2019-Jul-12 05:31N 50°49' W 001°06'0 0.5
2019-Jul-12 05:00N 50°49' W 001°06'5 9.5
2019-Jul-12 04:30N 50°44' W 001°04'612.9
2019-Jul-12 04:00N 50°38' W 001°06'611.3
2019-Jul-12 03:31N 50°33' W 001°11'811.7
2019-Jul-12 02:47N 50°25' W 001°16'1514.1
2019-Jul-12 01:45N 50°13' W 001°28'417.8
2019-Jul-12 01:30N 50°10' W 001°33'917.4
2019-Jul-12 01:01N 50°03' W 001°42'917.1
2019-Jul-12 00:30N 49°56' W 001°50'1017.0
2019-Jul-11 23:54N 49°47' W 001°58'616.1
2019-Jul-11 23:30N 49°42' W 002°03'815.8
2019-Jul-11 23:01N 49°35' W 002°08'816.2
2019-Jul-11 22:31N 49°30' W 002°18'815.4
2019-Jul-11 22:01N 49°25' W 002°28'3 6.6
2019-Jul-11 21:30N 49°27' W 002°32'0 0.0
2019-Jul-11 21:01N 49°27' W 002°32'0 0.0
2019-Jul-11 20:31N 49°27' W 002°32'1 2.1
2019-Jul-11 20:01N 49°27' W 002°30'816.0
2019-Jul-11 19:31N 49°20' W 002°25'816.6
2019-Jul-11 19:00N 49°13' W 002°19'815.4
2019-Jul-11 18:30N 49°10' W 002°08'1 2.3
2019-Jul-11 18:00N 49°11' W 002°07'0 0.0
2019-Jul-11 17:30N 49°11' W 002°07'0 0.0
2019-Jul-11 17:00N 49°11' W 002°07'0 0.0
2019-Jul-11 16:30N 49°11' W 002°07'0 0.0
2019-Jul-11 16:00N 49°11' W 002°07'5 9.0
2019-Jul-11 15:30N 49°10' W 002°14'714.0
2019-Jul-11 15:01N 49°15' W 002°21'714.6
2019-Jul-11 14:30N 49°22' W 002°17'714.7
2019-Jul-11 14:01N 49°29' W 002°13'714.7
2019-Jul-11 13:30N 49°36' W 002°08'813.6
2019-Jul-11 12:54N 49°43' W 002°03'513.9
2019-Jul-11 12:30N 49°48' W 001°58'815.9
2019-Jul-11 12:00N 49°53' W 001°49'816.8
2019-Jul-11 11:30N 50°00' W 001°42'917.4
2019-Jul-11 11:00N 50°07' W 001°34'917.6
2019-Jul-11 10:30N 50°15' W 001°27'917.5
2019-Jul-11 10:00N 50°23' W 001°21'917.9
2019-Jul-11 09:30N 50°30' W 001°14'918.4
2019-Jul-11 09:00N 50°38' W 001°06'815.1
2019-Jul-11 08:30N 50°46' W 001°05'3 6.4
2019-Jul-11 08:00N 50°49' W 001°06'0 0.0
2019-Jul-11 07:30N 50°49' W 001°06'0 0.0
2019-Jul-11 07:00N 50°49' W 001°06'0 0.0
2019-Jul-11 06:30N 50°49' W 001°06'0 0.0
2019-Jul-11 06:00N 50°49' W 001°06'0 0.0
2019-Jul-11 05:30N 50°49' W 001°06'3 5.2
2019-Jul-11 05:01N 50°46' W 001°06'714.0
2019-Jul-11 04:31N 50°39' W 001°05'815.3
2019-Jul-11 04:01N 50°32' W 001°10'815.7
2019-Jul-11 03:31N 50°25' W 001°16'918.1
2019-Jul-11 03:00N 50°18' W 001°24'918.6
2019-Jul-11 02:30N 50°10' W 001°32'1018.8
2019-Jul-11 02:00N 50°02' W 001°41'919.0
2019-Jul-11 01:31N 49°55' W 001°50'1019.4
2019-Jul-11 01:01N 49°47' W 001°59'1020.7
2019-Jul-11 00:30N 49°38' W 002°05'918.7
2019-Jul-11 00:01N 49°29' W 002°11'917.9
2019-Jul-10 23:31N 49°21' W 002°18'816.7
2019-Jul-10 23:01N 49°13' W 002°20'813.4
2019-Jul-10 22:24N 49°10' W 002°09'1 3.3
2019-Jul-10 22:00N 49°11' W 002°07'0 0.0
2019-Jul-10 21:30N 49°11' W 002°07'0 0.0
2019-Jul-10 21:00N 49°11' W 002°07'0 0.0
2019-Jul-10 20:30N 49°11' W 002°07'4 7.6
2019-Jul-10 19:56N 49°10' W 002°13'511.9
2019-Jul-10 19:30N 49°11' W 002°21'611.2
2019-Jul-10 19:00N 49°17' W 002°23'510.7
2019-Jul-10 18:30N 49°21' W 002°27'612.5
2019-Jul-10 18:00N 49°27' W 002°31'1 1.5
2019-Jul-10 17:30N 49°27' W 002°32'0 0.0
2019-Jul-10 17:00N 49°27' W 002°32'0 0.0
2019-Jul-10 16:30N 49°27' W 002°32'0 0.0
2019-Jul-10 16:01N 49°27' W 002°32'1 2.1
2019-Jul-10 15:31N 49°27' W 002°30'611.6
2019-Jul-10 15:00N 49°29' W 002°21'816.0
2019-Jul-10 14:31N 49°33' W 002°11'814.3
2019-Jul-10 13:59N 49°40' W 002°06'612.3
2019-Jul-10 13:30N 49°45' W 002°02'713.1
2019-Jul-10 13:00N 49°51' W 001°57'714.9
2019-Jul-10 12:30N 49°57' W 001°52'815.5
2019-Jul-10 12:01N 50°04' W 001°45'816.0
2019-Jul-10 11:30N 50°10' W 001°37'816.6
2019-Jul-10 11:00N 50°16' W 001°29'917.0
2019-Jul-10 10:30N 50°23' W 001°21'917.2
2019-Jul-10 10:00N 50°30' W 001°13'917.6
2019-Jul-10 09:30N 50°37' W 001°04'714.1
2019-Jul-10 09:01N 50°44' W 001°04'5 9.8
2019-Jul-10 08:31N 50°49' W 001°06'0 0.8
2019-Jul-10 08:01N 50°49' W 001°06'0 0.0
2019-Jul-10 07:31N 50°49' W 001°06'0 0.0
2019-Jul-10 07:00N 50°49' W 001°06'0 0.0
2019-Jul-10 06:31N 50°49' W 001°06'0 0.0
2019-Jul-10 06:01N 50°49' W 001°06'0 0.0
2019-Jul-10 05:31N 50°49' W 001°06'3 5.3
2019-Jul-10 05:00N 50°46' W 001°06'713.6
2019-Jul-10 04:30N 50°39' W 001°05'713.2
2019-Jul-10 04:00N 50°34' W 001°10'914.5
2019-Jul-10 03:25N 50°26' W 001°17'717.5
2019-Jul-10 02:59N 50°20' W 001°23'1518.1
2019-Jul-10 02:09N 50°07' W 001°35'318.4
2019-Jul-10 01:58N 50°04' W 001°38'919.1
2019-Jul-10 01:30N 49°57' W 001°47'1019.3
2019-Jul-10 01:01N 49°49' W 001°55'1121.3
2019-Jul-10 00:31N 49°40' W 002°04'1019.6
2019-Jul-10 00:01N 49°32' W 002°11'918.6
2019-Jul-09 23:31N 49°23' W 002°16'918.0
2019-Jul-09 23:01N 49°15' W 002°21'814.5
2019-Jul-09 22:26N 49°10' W 002°11'3 5.7
2019-Jul-09 21:58N 49°11' W 002°07'0 0.0
2019-Jul-09 21:30N 49°11' W 002°07'0 0.0
2019-Jul-09 21:00N 49°11' W 002°07'0 0.0
2019-Jul-09 20:30N 49°11' W 002°07'0 0.0
2019-Jul-09 20:00N 49°11' W 002°07'2 3.9
2019-Jul-09 19:28N 49°10' W 002°10'714.3
2019-Jul-09 19:00N 49°12' W 002°19'612.4
2019-Jul-09 18:30N 49°18' W 002°24'  

Dump ship's entire track history